AKJ6775 VOHS-VOBL
Flight info
| Callsign | AKJ6775 |
|---|---|
| Flight time | 0h 44m |
| Altitude | 36000 |
| Route | LURGI5 LURGI Q21 TELUV TELUV7E |
| Aircraft | B38M/M-SDE1FGHILORVWXY/HB1 |
Departure
| Time | 2026-04-21 06:37 |
|---|---|
| Airport | Rajiv Gandhi International Airport (VOHS) |
Arrival
| Time | 2026-04-21 07:21 |
|---|---|
| Airport | Kempegowda International Airport Bengaluru (VOBL) |
| Time | Latitude | Longitude | Altitude | Speed | Heading |
|---|---|---|---|---|---|
| 2026-04-21 06:26 | 17.23328 | 78.44314 | 1983 ft | 0 kts | 270° |
| 2026-04-21 06:30 | 17.23328 | 78.44315 | 1983 ft | 2 kts | 270° |
| 2026-04-21 06:30 | 17.23329 | 78.44332 | 1984 ft | 2 kts | 262° |
| 2026-04-21 06:31 | 17.23334 | 78.44349 | 1983 ft | 2 kts | 243° |
| 2026-04-21 06:31 | 17.23344 | 78.44362 | 1985 ft | 2 kts | 203° |
| 2026-04-21 06:31 | 17.23359 | 78.44365 | 1983 ft | 1 kts | 181° |
| 2026-04-21 06:31 | 17.23363 | 78.44365 | 1983 ft | 0 kts | 180° |
| 2026-04-21 06:34 | 17.23359 | 78.44365 | 1983 ft | 4 kts | 180° |
| 2026-04-21 06:34 | 17.23278 | 78.44365 | 1984 ft | 19 kts | 180° |
| 2026-04-21 06:34 | 17.23124 | 78.44376 | 1986 ft | 15 kts | 154° |
| 2026-04-21 06:34 | 17.23092 | 78.44456 | 1983 ft | 12 kts | 81° |
| 2026-04-21 06:35 | 17.23103 | 78.44554 | 1983 ft | 18 kts | 88° |
| 2026-04-21 06:35 | 17.23107 | 78.44709 | 1982 ft | 23 kts | 89° |
| 2026-04-21 06:35 | 17.23108 | 78.44870 | 1983 ft | 16 kts | 101° |
| 2026-04-21 06:35 | 17.23040 | 78.44925 | 1985 ft | 4 kts | 176° |
| 2026-04-21 06:36 | 17.22998 | 78.44928 | 1984 ft | 11 kts | 178° |
| 2026-04-21 06:36 | 17.22909 | 78.44875 | 1983 ft | 23 kts | 252° |
| 2026-04-21 06:36 | 17.22898 | 78.44514 | 1985 ft | 85 kts | 269° |
| 2026-04-21 06:36 | 17.22899 | 78.43641 | 1985 ft | 152 kts | 270° |
| 2026-04-21 06:37 | 17.22905 | 78.42406 | 2274 ft | 187 kts | 271° |
| 2026-04-21 06:37 | 17.22885 | 78.40969 | 2969 ft | 209 kts | 269° |
| 2026-04-21 06:37 | 17.22570 | 78.39395 | 3497 ft | 231 kts | 240° |
| 2026-04-21 06:37 | 17.21355 | 78.38286 | 4007 ft | 244 kts | 202° |
| 2026-04-21 06:38 | 17.19661 | 78.38134 | 4613 ft | 251 kts | 171° |
| 2026-04-21 06:38 | 17.17899 | 78.38495 | 5180 ft | 261 kts | 170° |
| 2026-04-21 06:38 | 17.16094 | 78.38848 | 5785 ft | 265 kts | 170° |
| 2026-04-21 06:38 | 17.14247 | 78.39206 | 6389 ft | 268 kts | 170° |
| 2026-04-21 06:39 | 17.12418 | 78.39567 | 6999 ft | 268 kts | 169° |
| 2026-04-21 06:39 | 17.10525 | 78.39941 | 7566 ft | 287 kts | 169° |
| 2026-04-21 06:39 | 17.08508 | 78.40336 | 8149 ft | 301 kts | 169° |
| 2026-04-21 06:39 | 17.06444 | 78.40744 | 8752 ft | 305 kts | 169° |
| 2026-04-21 06:40 | 17.04336 | 78.41159 | 9388 ft | 310 kts | 169° |
| 2026-04-21 06:40 | 17.02194 | 78.41584 | 9998 ft | 318 kts | 168° |
| 2026-04-21 06:40 | 17.00042 | 78.42013 | 10578 ft | 318 kts | 168° |
| 2026-04-21 06:40 | 16.97854 | 78.42452 | 11174 ft | 323 kts | 168° |
| 2026-04-21 06:41 | 16.95592 | 78.42903 | 11730 ft | 338 kts | 169° |
| 2026-04-21 06:41 | 16.93227 | 78.43375 | 12169 ft | 354 kts | 169° |
| 2026-04-21 06:41 | 16.90756 | 78.43868 | 12625 ft | 368 kts | 169° |
| 2026-04-21 06:41 | 16.88196 | 78.44338 | 13097 ft | 379 kts | 173° |
| 2026-04-21 06:42 | 16.85532 | 78.44600 | 13615 ft | 388 kts | 174° |
| 2026-04-21 06:42 | 16.82809 | 78.44876 | 14055 ft | 397 kts | 174° |
| 2026-04-21 06:42 | 16.80031 | 78.45168 | 14508 ft | 402 kts | 174° |
| 2026-04-21 06:42 | 16.77245 | 78.45464 | 14943 ft | 405 kts | 174° |
| 2026-04-21 06:43 | 16.74431 | 78.45766 | 15430 ft | 406 kts | 174° |
| 2026-04-21 06:43 | 16.71639 | 78.46064 | 15878 ft | 411 kts | 174° |
| 2026-04-21 06:43 | 16.68784 | 78.46369 | 16360 ft | 412 kts | 174° |
| 2026-04-21 06:43 | 16.65914 | 78.46675 | 16859 ft | 416 kts | 174° |
| 2026-04-21 06:44 | 16.63025 | 78.46983 | 17338 ft | 418 kts | 174° |
| 2026-04-21 06:44 | 16.60124 | 78.47293 | 17839 ft | 422 kts | 174° |
| 2026-04-21 06:44 | 16.57196 | 78.47605 | 18323 ft | 423 kts | 174° |
| 2026-04-21 06:44 | 16.54247 | 78.47919 | 18803 ft | 425 kts | 175° |
| 2026-04-21 06:45 | 16.51342 | 78.48228 | 19212 ft | 427 kts | 175° |
| 2026-04-21 06:45 | 16.48336 | 78.48549 | 19673 ft | 428 kts | 175° |
| 2026-04-21 06:45 | 16.45385 | 78.48864 | 20117 ft | 430 kts | 175° |
| 2026-04-21 06:45 | 16.42404 | 78.49181 | 20605 ft | 431 kts | 175° |
| 2026-04-21 06:46 | 16.39419 | 78.49499 | 21062 ft | 432 kts | 175° |
| 2026-04-21 06:46 | 16.36415 | 78.49819 | 21552 ft | 432 kts | 175° |
| 2026-04-21 06:46 | 16.33433 | 78.50135 | 22037 ft | 432 kts | 176° |
| 2026-04-21 06:46 | 16.30431 | 78.50454 | 22527 ft | 433 kts | 176° |
| 2026-04-21 06:47 | 16.27468 | 78.50770 | 23037 ft | 433 kts | 176° |
| 2026-04-21 06:47 | 16.24468 | 78.51089 | 23535 ft | 432 kts | 176° |
| 2026-04-21 06:47 | 16.21446 | 78.51389 | 23973 ft | 431 kts | 179° |
| 2026-04-21 06:47 | 16.18449 | 78.51133 | 24183 ft | 432 kts | 194° |
| 2026-04-21 06:48 | 16.15521 | 78.50489 | 24676 ft | 430 kts | 192° |
| 2026-04-21 06:48 | 16.12542 | 78.50045 | 24997 ft | 433 kts | 190° |
| 2026-04-21 06:48 | 16.09562 | 78.49610 | 25354 ft | 434 kts | 190° |
| 2026-04-21 06:48 | 16.06573 | 78.49153 | 25724 ft | 435 kts | 191° |
| 2026-04-21 06:49 | 16.03578 | 78.48681 | 26073 ft | 436 kts | 191° |
| 2026-04-21 06:49 | 16.00570 | 78.48200 | 26432 ft | 437 kts | 191° |
| 2026-04-21 06:49 | 15.97558 | 78.47716 | 26821 ft | 437 kts | 191° |
| 2026-04-21 06:49 | 15.94544 | 78.47233 | 27185 ft | 438 kts | 191° |
| 2026-04-21 06:50 | 15.91538 | 78.46751 | 27549 ft | 439 kts | 192° |
| 2026-04-21 06:50 | 15.88508 | 78.46265 | 27951 ft | 438 kts | 192° |
| 2026-04-21 06:50 | 15.85487 | 78.45781 | 28335 ft | 438 kts | 192° |
| 2026-04-21 06:50 | 15.82476 | 78.45299 | 28714 ft | 438 kts | 192° |
| 2026-04-21 06:51 | 15.79472 | 78.44818 | 29133 ft | 438 kts | 192° |
| 2026-04-21 06:51 | 15.76455 | 78.44335 | 29531 ft | 437 kts | 192° |
| 2026-04-21 06:51 | 15.73449 | 78.43854 | 29930 ft | 436 kts | 192° |
| 2026-04-21 06:51 | 15.70454 | 78.43375 | 30276 ft | 435 kts | 192° |
| 2026-04-21 06:52 | 15.67463 | 78.42897 | 30627 ft | 434 kts | 192° |
| 2026-04-21 06:52 | 15.64484 | 78.42420 | 30981 ft | 432 kts | 192° |
| 2026-04-21 06:52 | 15.61517 | 78.41946 | 31332 ft | 431 kts | 192° |
| 2026-04-21 06:52 | 15.58561 | 78.41473 | 31688 ft | 429 kts | 192° |
| 2026-04-21 06:53 | 15.55615 | 78.41003 | 32051 ft | 427 kts | 192° |
| 2026-04-21 06:53 | 15.52687 | 78.40535 | 32421 ft | 424 kts | 192° |
| 2026-04-21 06:53 | 15.49786 | 78.40072 | 32796 ft | 421 kts | 192° |
| 2026-04-21 06:53 | 15.46907 | 78.39612 | 33167 ft | 418 kts | 192° |
| 2026-04-21 06:54 | 15.44034 | 78.39153 | 33553 ft | 415 kts | 192° |
| 2026-04-21 06:54 | 15.41192 | 78.38700 | 33925 ft | 412 kts | 192° |
| 2026-04-21 06:54 | 15.38370 | 78.38250 | 34247 ft | 409 kts | 192° |
| 2026-04-21 06:54 | 15.35564 | 78.37802 | 34576 ft | 406 kts | 192° |
| 2026-04-21 06:55 | 15.32817 | 78.37364 | 34905 ft | 403 kts | 192° |
| 2026-04-21 06:55 | 15.30060 | 78.36925 | 35241 ft | 399 kts | 192° |
| 2026-04-21 06:55 | 15.27317 | 78.36488 | 35600 ft | 396 kts | 192° |
| 2026-04-21 06:55 | 15.24608 | 78.36056 | 35864 ft | 394 kts | 192° |
| 2026-04-21 06:56 | 15.21877 | 78.35619 | 35850 ft | 399 kts | 192° |
| 2026-04-21 06:56 | 15.16364 | 78.34735 | 35849 ft | 402 kts | 192° |
| 2026-04-21 06:57 | 15.10817 | 78.33847 | 35858 ft | 404 kts | 192° |
| 2026-04-21 06:57 | 15.05259 | 78.32956 | 35855 ft | 404 kts | 192° |
| 2026-04-21 06:58 | 14.99693 | 78.32065 | 35863 ft | 404 kts | 192° |
| 2026-04-21 06:58 | 14.94169 | 78.31181 | 35859 ft | 405 kts | 192° |
| 2026-04-21 06:59 | 14.88592 | 78.30290 | 35859 ft | 406 kts | 192° |
| 2026-04-21 06:59 | 14.83004 | 78.29396 | 35761 ft | 409 kts | 192° |
| 2026-04-21 06:59 | 14.80205 | 78.28948 | 35318 ft | 405 kts | 192° |
| 2026-04-21 07:00 | 14.77440 | 78.28505 | 34970 ft | 399 kts | 192° |
| 2026-04-21 07:00 | 14.74716 | 78.28068 | 34579 ft | 394 kts | 192° |
| 2026-04-21 07:00 | 14.72022 | 78.27636 | 34164 ft | 390 kts | 192° |
| 2026-04-21 07:00 | 14.69340 | 78.27206 | 33735 ft | 385 kts | 192° |
| 2026-04-21 07:01 | 14.66621 | 78.26770 | 33246 ft | 398 kts | 192° |
| 2026-04-21 07:01 | 14.63868 | 78.26329 | 32737 ft | 411 kts | 192° |
| 2026-04-21 07:01 | 14.58071 | 78.25401 | 31779 ft | 425 kts | 192° |
| 2026-04-21 07:02 | 14.55180 | 78.24938 | 31324 ft | 428 kts | 192° |
| 2026-04-21 07:02 | 14.52184 | 78.24458 | 30875 ft | 432 kts | 192° |
| 2026-04-21 07:02 | 14.49205 | 78.23982 | 30445 ft | 434 kts | 192° |
| 2026-04-21 07:02 | 14.46204 | 78.23502 | 30004 ft | 437 kts | 192° |
| 2026-04-21 07:03 | 14.43192 | 78.23020 | 29514 ft | 440 kts | 192° |
| 2026-04-21 07:03 | 14.41155 | 78.22695 | 29155 ft | 439 kts | 192° |
| 2026-04-21 07:03 | 14.37144 | 78.22054 | 28308 ft | 442 kts | 191° |
| 2026-04-21 07:03 | 14.34070 | 78.21563 | 27638 ft | 454 kts | 191° |
| 2026-04-21 07:04 | 14.30900 | 78.21056 | 26942 ft | 467 kts | 191° |
| 2026-04-21 07:04 | 14.27647 | 78.20537 | 26275 ft | 474 kts | 191° |
| 2026-04-21 07:04 | 14.25451 | 78.20186 | 25892 ft | 473 kts | 191° |
| 2026-04-21 07:04 | 14.22163 | 78.19661 | 25238 ft | 479 kts | 190° |
| 2026-04-21 07:05 | 14.18860 | 78.19134 | 24690 ft | 475 kts | 190° |
| 2026-04-21 07:05 | 14.15647 | 78.18522 | 24117 ft | 477 kts | 196° |
| 2026-04-21 07:05 | 14.12592 | 78.17220 | 23510 ft | 470 kts | 210° |
| 2026-04-21 07:05 | 14.09825 | 78.15565 | 23244 ft | 453 kts | 208° |
| 2026-04-21 07:06 | 14.06979 | 78.14208 | 22726 ft | 445 kts | 202° |
| 2026-04-21 07:06 | 14.04159 | 78.12933 | 22224 ft | 440 kts | 205° |
| 2026-04-21 07:06 | 14.01395 | 78.11616 | 21730 ft | 436 kts | 205° |
| 2026-04-21 07:06 | 13.98654 | 78.10303 | 21232 ft | 434 kts | 205° |
| 2026-04-21 07:07 | 13.95923 | 78.08994 | 20745 ft | 432 kts | 205° |
| 2026-04-21 07:07 | 13.93188 | 78.07684 | 20257 ft | 431 kts | 205° |
| 2026-04-21 07:07 | 13.90479 | 78.06386 | 19779 ft | 429 kts | 205° |
| 2026-04-21 07:07 | 13.87776 | 78.05092 | 19316 ft | 427 kts | 205° |
| 2026-04-21 07:08 | 13.85088 | 78.03805 | 18846 ft | 425 kts | 205° |
| 2026-04-21 07:08 | 13.82419 | 78.02528 | 18376 ft | 423 kts | 205° |
| 2026-04-21 07:08 | 13.79751 | 78.01252 | 17894 ft | 421 kts | 205° |
| 2026-04-21 07:08 | 13.77098 | 77.99983 | 17361 ft | 420 kts | 204° |
| 2026-04-21 07:09 | 13.74457 | 77.98719 | 16843 ft | 418 kts | 204° |
| 2026-04-21 07:09 | 13.71819 | 77.97458 | 16317 ft | 416 kts | 204° |
| 2026-04-21 07:09 | 13.69203 | 77.96208 | 15837 ft | 414 kts | 204° |
| 2026-04-21 07:09 | 13.66569 | 77.95023 | 15295 ft | 411 kts | 197° |
| 2026-04-21 07:10 | 13.63784 | 77.94602 | 14931 ft | 403 kts | 176° |
| 2026-04-21 07:10 | 13.61047 | 77.94730 | 15114 ft | 400 kts | 179° |
| 2026-04-21 07:10 | 13.58249 | 77.94582 | 14750 ft | 397 kts | 181° |
| 2026-04-21 07:10 | 13.55567 | 77.94467 | 14464 ft | 378 kts | 181° |
| 2026-04-21 07:11 | 13.53003 | 77.94372 | 14173 ft | 359 kts | 180° |
| 2026-04-21 07:11 | 13.50554 | 77.94289 | 13789 ft | 346 kts | 180° |
| 2026-04-21 07:11 | 13.48184 | 77.94213 | 13299 ft | 335 kts | 180° |
| 2026-04-21 07:11 | 13.45877 | 77.94140 | 12813 ft | 326 kts | 179° |
| 2026-04-21 07:12 | 13.43635 | 77.94072 | 12334 ft | 318 kts | 179° |
| 2026-04-21 07:12 | 13.41473 | 77.94217 | 11819 ft | 307 kts | 161° |
| 2026-04-21 07:12 | 13.39653 | 77.95263 | 11312 ft | 299 kts | 131° |
| 2026-04-21 07:12 | 13.38451 | 77.96989 | 10898 ft | 296 kts | 118° |
| 2026-04-21 07:13 | 13.37400 | 77.98811 | 10446 ft | 297 kts | 118° |
| 2026-04-21 07:13 | 13.36356 | 78.00614 | 10012 ft | 298 kts | 118° |
| 2026-04-21 07:13 | 13.35291 | 78.02446 | 9544 ft | 300 kts | 118° |
| 2026-04-21 07:13 | 13.34196 | 78.04275 | 9049 ft | 301 kts | 123° |
| 2026-04-21 07:14 | 13.32640 | 78.05724 | 8506 ft | 309 kts | 152° |
| 2026-04-21 07:14 | 13.30577 | 78.06224 | 8027 ft | 304 kts | 177° |
| 2026-04-21 07:14 | 13.28529 | 78.06200 | 7610 ft | 283 kts | 179° |
| 2026-04-21 07:14 | 13.26597 | 78.06161 | 7168 ft | 265 kts | 179° |
| 2026-04-21 07:15 | 13.24816 | 78.05968 | 6692 ft | 254 kts | 199° |
| 2026-04-21 07:15 | 13.23423 | 78.04923 | 6150 ft | 252 kts | 237° |
| 2026-04-21 07:15 | 13.22924 | 78.03251 | 5961 ft | 242 kts | 270° |
| 2026-04-21 07:15 | 13.22901 | 78.01557 | 6629 ft | 238 kts | 264° |
| 2026-04-21 07:16 | 13.22541 | 77.99814 | 6303 ft | 262 kts | 246° |
| 2026-04-21 07:16 | 13.21684 | 77.98136 | 5836 ft | 262 kts | 239° |
| 2026-04-21 07:16 | 13.20875 | 77.96575 | 6113 ft | 249 kts | 249° |
| 2026-04-21 07:16 | 13.20537 | 77.94844 | 6096 ft | 248 kts | 266° |
| 2026-04-21 07:17 | 13.20518 | 77.93071 | 6034 ft | 248 kts | 271° |
| 2026-04-21 07:17 | 13.20541 | 77.91355 | 6021 ft | 230 kts | 271° |
| 2026-04-21 07:17 | 13.20557 | 77.89797 | 6001 ft | 208 kts | 270° |
| 2026-04-21 07:17 | 13.20570 | 77.88304 | 5811 ft | 213 kts | 270° |
| 2026-04-21 07:18 | 13.20582 | 77.86776 | 5563 ft | 215 kts | 270° |
| 2026-04-21 07:18 | 13.20594 | 77.85234 | 5305 ft | 215 kts | 270° |
| 2026-04-21 07:18 | 13.20605 | 77.83748 | 5065 ft | 203 kts | 270° |
| 2026-04-21 07:18 | 13.20618 | 77.82321 | 4839 ft | 193 kts | 270° |
| 2026-04-21 07:19 | 13.20628 | 77.80988 | 4625 ft | 185 kts | 270° |
| 2026-04-21 07:19 | 13.20636 | 77.79699 | 4388 ft | 171 kts | 271° |
| 2026-04-21 07:19 | 13.20647 | 77.78544 | 4170 ft | 157 kts | 270° |
| 2026-04-21 07:19 | 13.20653 | 77.77385 | 3963 ft | 174 kts | 270° |
| 2026-04-21 07:20 | 13.20662 | 77.76137 | 3748 ft | 167 kts | 271° |
| 2026-04-21 07:20 | 13.20667 | 77.74949 | 3523 ft | 166 kts | 272° |
| 2026-04-21 07:20 | 13.20680 | 77.73764 | 3261 ft | 167 kts | 273° |
| 2026-04-21 07:20 | 13.20696 | 77.72592 | 3059 ft | 163 kts | 273° |
| 2026-04-21 07:21 | 13.20702 | 77.71460 | 2970 ft | 146 kts | 269° |
| 2026-04-21 07:21 | 13.20700 | 77.70763 | 2971 ft | 67 kts | 270° |
| 2026-04-21 07:21 | 13.20673 | 77.70423 | 2970 ft | 29 kts | 251° |
| 2026-04-21 07:21 | 13.20633 | 77.70337 | 2972 ft | 12 kts | 241° |
| 2026-04-21 07:22 | 13.20611 | 77.70299 | 2973 ft | 0 kts | 240° |
| 2026-04-21 07:23 | 13.20607 | 77.70293 | 2973 ft | 2 kts | 240° |
| 2026-04-21 07:23 | 13.20603 | 77.70285 | 2973 ft | 1 kts | 239° |
| 2026-04-21 07:23 | 13.20602 | 77.70284 | 2973 ft | 0 kts | 239° |
| 2026-04-21 07:24 | 13.20571 | 77.70273 | 2974 ft | 8 kts | 175° |
| 2026-04-21 07:24 | 13.20532 | 77.70315 | 2974 ft | 9 kts | 112° |
| 2026-04-21 07:24 | 13.20513 | 77.70385 | 2973 ft | 12 kts | 141° |
| 2026-04-21 07:24 | 13.20427 | 77.70392 | 2972 ft | 15 kts | 180° |
| 2026-04-21 07:25 | 13.20336 | 77.70392 | 2971 ft | 14 kts | 180° |
| 2026-04-21 07:25 | 13.20254 | 77.70421 | 2971 ft | 13 kts | 119° |
| 2026-04-21 07:25 | 13.20247 | 77.70512 | 2971 ft | 13 kts | 91° |
| 2026-04-21 07:25 | 13.20245 | 77.70611 | 2971 ft | 14 kts | 88° |
| 2026-04-21 07:26 | 13.20245 | 77.70716 | 2971 ft | 15 kts | 91° |
| 2026-04-21 07:26 | 13.20242 | 77.70827 | 2971 ft | 16 kts | 91° |
| 2026-04-21 07:26 | 13.20241 | 77.70943 | 2971 ft | 17 kts | 91° |
| 2026-04-21 07:26 | 13.20239 | 77.71066 | 2971 ft | 18 kts | 90° |
| 2026-04-21 07:27 | 13.20239 | 77.71195 | 2971 ft | 18 kts | 89° |
| 2026-04-21 07:27 | 13.20240 | 77.71323 | 2971 ft | 15 kts | 89° |
| 2026-04-21 07:27 | 13.20240 | 77.71382 | 2971 ft | 0 kts | 90° |
| 2026-04-21 07:27 | 13.20235 | 77.71391 | 2971 ft | 3 kts | 137° |
| 2026-04-21 07:28 | 13.20197 | 77.71395 | 2971 ft | 10 kts | 178° |
| 2026-04-21 07:28 | 13.20160 | 77.71395 | 2971 ft | 0 kts | 181° |